Time;durP1;ratioP1;P1;durP2;ratioP2;P2;SDS_P1;SDS_P2;PMS_P1;PMS_P2;Temp;Humidity;BMP_temperature;BMP_pressure;BME280_temperature;BME280_humidity;BME280_pressure;Samples;Min_cycle;Max_cycle;Signal;HPM_P1;HPM_P2
2024/01/16 00:02:04;;;;;;;4.75;1.90;;;2.10;99.90;;;;;;5050062;28;20069;-84
2024/01/16 00:04:36;;;;;;;6.68;2.30;;;2.10;99.90;;;;;;5055310;28;20060;-83
2024/01/16 00:07:01;;;;;;;3.83;1.88;;;2.10;99.90;;;;;;5039070;28;20081;-85
2024/01/16 00:09:32;;;;;;;3.10;1.48;;;2.10;99.90;;;;;;5043535;28;20025;-84
2024/01/16 00:11:58;;;;;;;4.13;1.80;;;2.10;99.90;;;;;;5032811;28;20033;-84
2024/01/16 00:14:23;;;;;;;5.43;1.73;;;2.10;99.90;;;;;;5016164;28;20040;-84
2024/01/16 00:16:49;;;;;;;4.15;1.60;;;2.10;99.90;;;;;;5015816;28;20090;-85
2024/01/16 00:19:15;;;;;;;5.68;1.58;;;2.00;99.90;;;;;;5038457;28;20056;-84
2024/01/16 00:21:48;;;;;;;5.28;1.67;;;2.00;99.90;;;;;;5039251;28;20453;-85
2024/01/16 00:24:14;;;;;;;4.70;1.60;;;2.00;99.90;;;;;;5039146;28;20035;-84
2024/01/16 00:26:40;;;;;;;3.95;1.23;;;2.00;99.90;;;;;;5039171;28;20372;-84
2024/01/16 00:29:12;;;;;;;4.57;1.33;;;2.00;99.90;;;;;;5039217;28;20029;-84
2024/01/16 00:31:41;;;;;;;4.75;1.67;;;1.90;99.90;;;;;;5022870;28;20040;-84
2024/01/16 00:34:07;;;;;;;6.78;1.73;;;1.90;99.90;;;;;;5039116;28;20029;-85
2024/01/16 00:36:33;;;;;;;6.95;1.70;;;1.90;99.90;;;;;;5038837;28;20425;-85
2024/01/16 00:38:58;;;;;;;3.25;1.38;;;1.90;99.90;;;;;;5039264;28;20065;-84
2024/01/16 00:41:24;;;;;;;4.75;1.65;;;1.90;99.90;;;;;;5039052;28;20032;-85
2024/01/16 00:43:50;;;;;;;7.85;1.52;;;1.90;99.90;;;;;;5038332;28;20029;-85
2024/01/16 00:46:15;;;;;;;2.75;0.82;;;1.90;99.90;;;;;;5039390;28;20029;-84
2024/01/16 00:48:41;;;;;;;6.35;1.40;;;2.00;99.90;;;;;;5038843;28;20029;-84
2024/01/16 00:51:07;;;;;;;4.28;1.35;;;2.00;99.90;;;;;;5022266;28;20079;-84
2024/01/16 00:53:42;;;;;;;4.65;1.40;;;1.90;99.90;;;;;;5038538;28;20075;-84
2024/01/16 00:56:08;;;;;;;6.03;1.55;;;1.90;99.90;;;;;;5057001;28;20025;-84
2024/01/16 00:58:34;;;;;;;8.15;1.98;;;1.90;99.90;;;;;;5056408;28;20032;-84
2024/01/16 01:00:59;;;;;;;5.97;1.55;;;1.90;99.90;;;;;;5038804;28;20064;-84
2024/01/16 01:03:25;;;;;;;4.97;1.83;;;1.90;99.90;;;;;;5038523;28;20033;-84
2024/01/16 01:05:51;;;;;;;5.10;1.75;;;1.90;99.90;;;;;;5038251;28;20032;-84
2024/01/16 01:08:17;;;;;;;8.32;1.80;;;1.90;99.90;;;;;;5038534;28;20029;-83
2024/01/16 01:10:43;;;;;;;8.00;2.00;;;1.90;99.90;;;;;;5038437;28;20060;-84
2024/01/16 01:13:08;;;;;;;3.63;1.50;;;1.90;99.90;;;;;;5038775;28;20166;-84
2024/01/16 01:15:34;;;;;;;7.20;1.90;;;1.90;99.90;;;;;;5039376;28;20032;-84
2024/01/16 01:18:00;;;;;;;7.20;1.83;;;1.90;99.90;;;;;;5047627;28;20013;-83
2024/01/16 01:20:26;;;;;;;5.40;1.40;;;1.90;99.90;;;;;;5063017;28;20067;-84
2024/01/16 01:22:52;;;;;;;4.63;1.58;;;1.90;99.90;;;;;;5063014;28;20020;-83
2024/01/16 01:25:17;;;;;;;4.22;1.30;;;2.00;99.90;;;;;;5062377;28;20025;-84
2024/01/16 01:27:43;;;;;;;8.23;1.95;;;2.10;99.90;;;;;;5039765;28;20052;-84
2024/01/16 01:30:10;;;;;;;5.20;1.80;;;2.00;99.90;;;;;;5037727;28;20047;-84
2024/01/16 01:32:36;;;;;;;5.32;1.60;;;2.10;99.90;;;;;;5038192;28;20025;-85
2024/01/16 01:35:02;;;;;;;4.80;1.60;;;2.10;99.90;;;;;;5056006;28;20028;-84
2024/01/16 01:37:28;;;;;;;3.22;1.70;;;2.00;99.90;;;;;;5037775;28;20021;-85
2024/01/16 01:39:54;;;;;;;5.57;1.63;;;2.00;99.90;;;;;;5037773;28;20033;-85
2024/01/16 01:42:19;;;;;;;2.28;1.50;;;2.10;99.90;;;;;;5056087;28;20365;-84
2024/01/16 01:44:45;;;;;;;5.63;1.63;;;2.00;99.90;;;;;;5038139;28;20028;-84
2024/01/16 01:47:11;;;;;;;5.20;1.92;;;2.00;99.90;;;;;;5038499;28;20385;-84
2024/01/16 01:49:38;;;;;;;4.10;1.65;;;2.00;99.90;;;;;;5055352;28;20017;-85
2024/01/16 01:52:05;;;;;;;4.20;2.53;;;2.00;99.90;;;;;;5037882;28;20469;-84
2024/01/16 01:54:34;;;;;;;4.57;2.08;;;2.00;99.90;;;;;;5037796;28;20021;-85
2024/01/16 01:57:01;;;;;;;5.30;2.05;;;2.00;99.90;;;;;;5037705;28;20107;-85
2024/01/16 01:59:29;;;;;;;5.55;1.90;;;2.00;99.90;;;;;;5037635;28;20497;-85
2024/01/16 02:01:55;;;;;;;4.30;1.70;;;1.90;99.90;;;;;;5037382;28;20466;-85
2024/01/16 02:04:22;;;;;;;5.60;1.90;;;2.00;99.90;;;;;;5037621;28;20063;-85
2024/01/16 02:06:48;;;;;;;4.90;2.00;;;1.90;99.90;;;;;;5036870;28;20032;-84
2024/01/16 02:09:14;;;;;;;4.70;2.00;;;2.00;99.90;;;;;;5021052;28;20055;-85
2024/01/16 02:11:41;;;;;;;4.68;2.28;;;2.00;99.90;;;;;;5037418;28;20024;-85
2024/01/16 02:14:07;;;;;;;6.05;2.55;;;2.00;99.90;;;;;;5037154;28;20044;-85
2024/01/16 02:16:41;;;;;;;4.88;2.15;;;2.00;99.90;;;;;;5037332;28;20056;-85
2024/01/16 02:19:07;;;;;;;5.82;2.78;;;1.90;99.90;;;;;;5037234;28;20477;-85
2024/01/16 02:21:56;;;;;;;8.02;2.55;;;2.00;99.90;;;;;;5037084;28;20064;-85
2024/01/16 02:24:22;;;;;;;6.53;2.97;;;1.90;99.90;;;;;;5054889;28;20070;-84
2024/01/16 02:26:47;;;;;;;5.20;3.30;;;1.90;99.90;;;;;;5020843;28;20475;-84
2024/01/16 02:29:13;;;;;;;5.72;2.80;;;1.90;99.90;;;;;;5055194;28;20504;-84
2024/01/16 02:31:39;;;;;;;5.63;3.55;;;2.00;99.90;;;;;;5021390;28;20045;-85
2024/01/16 02:34:04;;;;;;;5.88;3.22;;;2.00;99.90;;;;;;5039791;28;20047;-84
2024/01/16 02:36:30;;;;;;;7.10;4.05;;;2.00;99.90;;;;;;5058016;28;20033;-84
2024/01/16 02:38:56;;;;;;;7.97;4.97;;;2.00;99.90;;;;;;5060074;28;20061;-83
2024/01/16 02:41:22;;;;;;;7.22;4.55;;;2.00;99.90;;;;;;5060768;28;20013;-84
2024/01/16 02:43:48;;;;;;;6.40;4.43;;;2.10;99.90;;;;;;5043956;28;20481;-84
2024/01/16 02:46:14;;;;;;;5.97;4.80;;;2.10;99.90;;;;;;5037331;28;20029;-85
2024/01/16 02:48:42;;;;;;;8.00;5.10;;;2.10;99.90;;;;;;5036782;28;20127;-84
2024/01/16 02:51:08;;;;;;;7.88;5.05;;;2.10;99.90;;;;;;5035936;28;20033;-85
2024/01/16 02:53:34;;;;;;;8.18;5.25;;;2.10;99.90;;;;;;5054259;28;20167;-84
2024/01/16 02:55:59;;;;;;;10.25;5.10;;;2.10;99.90;;;;;;5036419;28;20524;-85
2024/01/16 02:58:29;;;;;;;6.93;4.65;;;2.10;99.90;;;;;;5020114;28;20032;-84
2024/01/16 03:00:55;;;;;;;8.68;4.70;;;2.10;99.90;;;;;;5036310;28;20484;-85
2024/01/16 03:03:21;;;;;;;9.43;4.43;;;2.10;99.90;;;;;;5036342;28;20025;-85
2024/01/16 03:05:47;;;;;;;8.75;4.85;;;2.10;99.90;;;;;;5036315;28;20063;-84
2024/01/16 03:08:13;;;;;;;9.68;4.40;;;2.20;99.90;;;;;;5036351;28;20026;-85
2024/01/16 03:10:39;;;;;;;9.18;4.65;;;2.10;99.90;;;;;;5019920;28;20481;-85
2024/01/16 03:13:05;;;;;;;6.50;4.45;;;2.10;99.90;;;;;;5035511;28;20036;-85
2024/01/16 03:15:30;;;;;;;10.73;4.60;;;2.20;99.90;;;;;;5035958;28;20370;-85
2024/01/16 03:17:57;;;;;;;7.07;4.40;;;2.20;99.90;;;;;;5036300;28;20083;-84
2024/01/16 03:20:23;;;;;;;8.45;4.07;;;2.20;99.90;;;;;;5032619;28;20059;-85
2024/01/16 03:22:49;;;;;;;7.78;4.45;;;2.20;99.90;;;;;;5032482;28;20124;-85
2024/01/16 03:25:15;;;;;;;6.47;4.10;;;2.30;99.90;;;;;;5032609;28;20029;-85
2024/01/16 03:27:41;;;;;;;7.00;3.88;;;2.30;99.90;;;;;;5032816;28;20036;-85
2024/01/16 03:30:08;;;;;;;6.43;4.38;;;2.30;99.90;;;;;;5032720;28;20037;-85
2024/01/16 03:32:37;;;;;;;8.13;4.40;;;2.40;99.90;;;;;;5032738;28;20032;-85
2024/01/16 03:35:04;;;;;;;6.65;3.78;;;2.40;99.90;;;;;;5032986;28;20037;-85
2024/01/16 03:37:30;;;;;;;9.02;3.63;;;2.40;99.90;;;;;;5032902;28;20099;-85
2024/01/16 03:39:56;;;;;;;8.02;4.10;;;2.40;99.90;;;;;;5032790;28;20030;-84
2024/01/16 03:42:22;;;;;;;6.28;3.78;;;2.40;99.90;;;;;;5033303;28;20385;-85
2024/01/16 03:44:49;;;;;;;6.10;3.80;;;2.40;99.90;;;;;;5016833;28;20025;-85
2024/01/16 03:47:15;;;;;;;6.22;3.80;;;2.40;99.90;;;;;;5033574;28;20088;-85
2024/01/16 03:49:40;;;;;;;7.95;3.63;;;2.40;99.90;;;;;;5033699;28;20555;-85
2024/01/16 03:52:06;;;;;;;5.88;3.42;;;2.40;99.90;;;;;;5041029;28;20366;-84
2024/01/16 03:54:35;;;;;;;5.03;2.60;;;2.40;99.90;;;;;;5060276;28;20016;-85
2024/01/16 03:57:01;;;;;;;6.45;2.70;;;2.40;99.90;;;;;;5061198;28;20013;-84
2024/01/16 03:59:26;;;;;;;5.13;2.38;;;2.40;99.90;;;;;;5060417;28;20020;-85
2024/01/16 04:01:52;;;;;;;6.20;3.08;;;2.40;99.90;;;;;;5022793;28;20033;-85
2024/01/16 04:04:18;;;;;;;6.75;2.55;;;2.40;99.90;;;;;;5037332;28;20557;-85
2024/01/16 04:06:49;;;;;;;4.32;2.30;;;2.50;99.90;;;;;;5020509;28;20025;-85
2024/01/16 04:09:14;;;;;;;3.70;2.08;;;2.50;99.90;;;;;;5036966;28;20060;-85
2024/01/16 04:11:40;;;;;;;4.00;2.00;;;2.50;99.90;;;;;;5020178;28;20038;-85
2024/01/16 04:14:06;;;;;;;6.10;2.25;;;2.50;99.90;;;;;;5036553;28;20037;-84
2024/01/16 04:16:32;;;;;;;8.35;2.10;;;2.50;99.90;;;;;;5036436;28;20052;-85
2024/01/16 04:18:57;;;;;;;3.78;1.90;;;2.50;99.90;;;;;;5036202;28;20026;-85
2024/01/16 04:21:23;;;;;;;3.97;1.92;;;2.50;99.90;;;;;;5035779;28;20107;-84
2024/01/16 04:23:49;;;;;;;5.80;2.10;;;2.50;99.90;;;;;;5036229;28;20512;-84
2024/01/16 04:26:14;;;;;;;4.75;2.17;;;2.60;99.90;;;;;;5036295;28;20079;-84
2024/01/16 04:28:41;;;;;;;6.20;2.25;;;2.60;99.90;;;;;;5036261;28;20124;-84
2024/01/16 04:31:06;;;;;;;5.88;2.13;;;2.60;99.90;;;;;;5036024;28;20033;-85
2024/01/16 04:33:34;;;;;;;5.53;2.05;;;2.60;99.90;;;;;;5036416;28;20036;-84
2024/01/16 04:36:00;;;;;;;4.78;1.92;;;2.60;99.90;;;;;;5036031;28;20025;-84
2024/01/16 04:38:26;;;;;;;5.57;2.33;;;2.60;99.90;;;;;;5036655;28;20073;-84
2024/01/16 04:40:51;;;;;;;7.35;2.50;;;2.60;99.90;;;;;;5019677;28;20061;-84
2024/01/16 04:43:17;;;;;;;6.68;2.65;;;2.60;99.90;;;;;;5035643;28;20026;-85
2024/01/16 04:45:43;;;;;;;6.10;2.70;;;2.60;99.90;;;;;;5035915;28;20026;-85
2024/01/16 04:48:09;;;;;;;5.65;2.70;;;2.60;99.90;;;;;;5035775;28;20025;-85
2024/01/16 04:50:35;;;;;;;7.00;2.72;;;2.60;99.90;;;;;;5036079;28;20069;-84
2024/01/16 04:53:02;;;;;;;7.97;3.10;;;2.60;99.90;;;;;;5035595;28;20032;-84
2024/01/16 04:55:29;;;;;;;6.85;3.10;;;2.60;99.90;;;;;;5036584;28;20442;-84
2024/01/16 04:57:55;;;;;;;7.78;3.03;;;2.50;99.90;;;;;;5035355;28;20028;-84
2024/01/16 05:00:21;;;;;;;6.07;2.40;;;2.60;99.90;;;;;;5018751;28;20084;-85
2024/01/16 05:02:47;;;;;;;5.07;2.70;;;2.50;99.90;;;;;;5035767;28;20026;-84
2024/01/16 05:05:13;;;;;;;6.45;2.88;;;2.60;99.90;;;;;;5034278;28;20116;-85
2024/01/16 05:07:39;;;;;;;5.30;3.20;;;2.50;99.90;;;;;;5036150;28;20382;-84
2024/01/16 05:10:06;;;;;;;5.90;2.60;;;2.60;99.90;;;;;;5045221;28;20037;-84
2024/01/16 05:12:31;;;;;;;3.03;2.08;;;2.60;99.90;;;;;;5052849;28;20030;-83
2024/01/16 05:14:58;;;;;;;4.20;2.38;;;2.60;99.90;;;;;;5055906;28;20036;-84
2024/01/16 05:17:23;;;;;;;6.05;2.83;;;2.60;99.90;;;;;;5029929;28;20029;-84
2024/01/16 05:19:49;;;;;;;6.85;2.40;;;2.60;99.90;;;;;;5036880;28;20112;-83
2024/01/16 05:22:33;;;;;;;2.63;2.13;;;2.50;99.90;;;;;;5038317;28;20037;-84
2024/01/16 05:25:00;;;;;;;3.42;1.75;;;2.50;99.90;;;;;;5038437;28;20033;-83
2024/01/16 05:27:26;;;;;;;6.00;2.40;;;2.50;99.90;;;;;;5055746;28;20021;-83
2024/01/16 05:29:52;;;;;;;2.65;2.00;;;2.50;99.90;;;;;;5037986;28;20078;-84
2024/01/16 05:32:17;;;;;;;6.45;1.90;;;2.50;99.90;;;;;;5038284;28;20112;-83
2024/01/16 05:34:43;;;;;;;5.85;1.90;;;2.40;99.90;;;;;;5038426;28;20033;-83
2024/01/16 05:37:08;;;;;;;4.80;1.30;;;2.40;99.90;;;;;;5021475;28;20033;-84
2024/01/16 05:39:34;;;;;;;3.97;1.20;;;2.40;99.90;;;;;;5037732;28;20135;-83
2024/01/16 05:42:04;;;;;;;3.47;1.27;;;2.40;99.90;;;;;;5037784;28;20025;-83
2024/01/16 05:44:30;;;;;;;5.07;1.33;;;2.40;99.90;;;;;;5055263;28;20507;-85
2024/01/16 05:46:56;;;;;;;4.72;1.70;;;2.30;99.90;;;;;;5056209;28;20060;-84
2024/01/16 05:49:21;;;;;;;8.13;1.58;;;2.40;99.90;;;;;;5021280;28;20025;-84
2024/01/16 05:51:47;;;;;;;6.78;1.50;;;2.40;99.90;;;;;;5021209;28;20044;-84
2024/01/16 05:54:13;;;;;;;4.88;1.45;;;2.30;99.90;;;;;;5037723;28;20036;-83
2024/01/16 05:56:38;;;;;;;5.82;1.48;;;2.30;99.90;;;;;;5020610;28;20025;-83
2024/01/16 05:59:04;;;;;;;5.32;1.77;;;2.30;99.90;;;;;;5020628;28;20064;-84
2024/01/16 06:01:30;;;;;;;4.20;1.48;;;2.30;99.90;;;;;;5037289;28;20121;-84
2024/01/16 06:03:56;;;;;;;3.38;1.33;;;2.30;99.90;;;;;;5037751;28;20506;-84
2024/01/16 06:06:22;;;;;;;4.47;1.30;;;2.30;99.90;;;;;;5037424;28;20037;-84
2024/01/16 06:08:47;;;;;;;5.00;1.70;;;2.30;99.90;;;;;;5037628;28;20075;-85
2024/01/16 06:11:13;;;;;;;4.72;1.50;;;2.30;99.90;;;;;;5037276;28;20057;-84
2024/01/16 06:13:39;;;;;;;4.18;1.50;;;2.30;99.90;;;;;;5037252;28;20021;-84
2024/01/16 06:16:08;;;;;;;5.60;1.88;;;2.30;99.90;;;;;;5020491;28;20025;-86
2024/01/16 06:18:35;;;;;;;3.97;1.70;;;2.40;99.90;;;;;;5020802;28;20053;-85
2024/01/16 06:21:01;;;;;;;4.07;1.60;;;2.40;99.90;;;;;;5037132;28;20055;-85
2024/01/16 06:23:27;;;;;;;5.00;2.20;;;2.40;99.90;;;;;;5037079;28;20025;-84
2024/01/16 06:25:52;;;;;;;5.95;2.15;;;2.40;99.90;;;;;;5022897;28;20540;-85
2024/01/16 06:28:18;;;;;;;6.82;2.40;;;2.40;99.90;;;;;;5054142;28;20040;-84
2024/01/16 06:30:44;;;;;;;5.50;3.00;;;2.40;99.90;;;;;;5061236;28;20051;-84
2024/01/16 06:33:09;;;;;;;6.60;2.08;;;2.40;99.90;;;;;;5060991;28;20044;-85
2024/01/16 06:35:35;;;;;;;4.68;2.35;;;2.40;99.90;;;;;;5050738;28;20495;-85
2024/01/16 06:38:01;;;;;;;5.63;1.98;;;2.40;99.90;;;;;;5037937;28;20029;-85
2024/01/16 06:40:27;;;;;;;4.38;1.95;;;2.40;99.90;;;;;;5036918;28;20082;-84
2024/01/16 06:42:53;;;;;;;5.20;2.28;;;2.40;99.90;;;;;;5020024;28;20115;-85
2024/01/16 06:45:19;;;;;;;5.53;1.80;;;2.40;99.90;;;;;;5036908;28;20029;-84
2024/01/16 06:47:44;;;;;;;4.50;3.03;;;2.30;99.90;;;;;;5020060;28;20437;-85
2024/01/16 06:50:13;;;;;;;5.07;2.28;;;2.40;99.90;;;;;;5036706;28;20127;-85
2024/01/16 06:52:39;;;;;;;4.10;1.83;;;2.40;99.90;;;;;;5036385;28;20040;-84
2024/01/16 06:55:04;;;;;;;4.82;1.98;;;2.40;99.90;;;;;;5020120;28;20021;-84
2024/01/16 06:57:30;;;;;;;5.03;2.03;;;2.40;99.90;;;;;;5036352;28;20063;-84
2024/01/16 06:59:56;;;;;;;4.15;1.70;;;2.50;99.90;;;;;;5054584;28;20070;-85
2024/01/16 07:02:22;;;;;;;3.00;1.98;;;2.50;99.90;;;;;;5036309;28;20029;-85
2024/01/16 07:04:47;;;;;;;4.78;2.00;;;2.50;99.90;;;;;;5036281;28;20040;-85
2024/01/16 07:07:13;;;;;;;4.43;2.10;;;2.50;99.90;;;;;;5019990;28;20047;-85
2024/01/16 07:09:39;;;;;;;10.80;2.63;;;2.50;99.90;;;;;;5036199;28;20068;-85
2024/01/16 07:12:05;;;;;;;5.25;2.00;;;2.50;99.90;;;;;;5036229;28;20119;-85
2024/01/16 07:14:32;;;;;;;6.32;2.13;;;2.50;99.90;;;;;;5036637;28;20033;-85
2024/01/16 07:16:59;;;;;;;4.03;2.10;;;2.50;99.90;;;;;;5053947;28;20067;-85
2024/01/16 07:19:24;;;;;;;6.00;2.70;;;2.50;99.90;;;;;;5020140;28;20420;-85
2024/01/16 07:21:50;;;;;;;3.83;2.35;;;2.50;99.90;;;;;;5019492;28;20063;-84
2024/01/16 07:24:16;;;;;;;5.85;3.30;;;2.50;99.90;;;;;;5036161;28;20025;-85
2024/01/16 07:26:41;;;;;;;8.25;3.13;;;2.50;99.90;;;;;;5035799;28;20508;-85
2024/01/16 07:29:07;;;;;;;5.43;3.33;;;2.60;99.90;;;;;;5035380;28;20025;-85
2024/01/16 07:31:33;;;;;;;8.77;3.75;;;2.60;99.90;;;;;;5019639;28;20108;-85
2024/01/16 07:33:58;;;;;;;7.45;4.32;;;2.60;99.90;;;;;;5036062;28;20026;-85
2024/01/16 07:36:24;;;;;;;7.40;4.30;;;2.60;99.90;;;;;;5019593;28;20481;-85
2024/01/16 07:38:50;;;;;;;8.77;4.60;;;2.50;99.90;;;;;;5035707;28;20029;-85
2024/01/16 07:41:15;;;;;;;7.65;4.38;;;2.60;99.90;;;;;;5036280;28;20090;-85
2024/01/16 07:43:41;;;;;;;9.13;4.88;;;2.60;99.90;;;;;;5020482;28;20049;-85
2024/01/16 07:46:07;;;;;;;8.80;5.03;;;2.60;99.90;;;;;;5054665;28;20037;-85
2024/01/16 07:48:32;;;;;;;9.63;5.20;;;2.60;99.90;;;;;;5060570;28;20115;-83
2024/01/16 07:50:58;;;;;;;8.77;4.90;;;2.50;99.90;;;;;;5059787;28;20060;-85
2024/01/16 07:53:27;;;;;;;9.60;5.22;;;2.50;99.90;;;;;;5029119;28;20025;-89
2024/01/16 07:56:07;;;;;;;9.90;5.45;;;2.50;99.90;;;;;;5081901;27;1302246;-88
2024/01/16 07:58:33;;;;;;;7.82;4.85;;;2.50;99.90;;;;;;5072995;28;20036;-88
2024/01/16 08:00:59;;;;;;;9.60;5.65;;;2.50;99.90;;;;;;5094324;28;20020;-89
2024/01/16 08:03:25;;;;;;;9.68;5.35;;;2.50;99.90;;;;;;5094195;28;20020;-89
2024/01/16 08:05:51;;;;;;;11.32;5.72;;;2.50;99.90;;;;;;5094199;28;20019;-87
2024/01/16 08:08:16;;;;;;;9.38;5.93;;;2.60;99.90;;;;;;5094044;28;20379;-88
2024/01/16 08:10:42;;;;;;;8.68;6.25;;;2.60;99.90;;;;;;5093685;28;20542;-86
2024/01/16 08:13:08;;;;;;;11.65;5.28;;;2.60;99.90;;;;;;5094034;28;20024;-87
2024/01/16 08:15:34;;;;;;;10.77;6.05;;;2.60;99.90;;;;;;5093730;28;20533;-86
2024/01/16 08:18:00;;;;;;;12.35;6.20;;;2.60;99.90;;;;;;5094181;28;20360;-86
2024/01/16 08:20:26;;;;;;;9.93;5.57;;;2.60;99.90;;;;;;5094275;28;20020;-86
2024/01/16 08:22:53;;;;;;;9.35;5.65;;;2.60;99.90;;;;;;5093692;28;20440;-87
2024/01/16 08:25:19;;;;;;;7.07;5.03;;;2.60;99.90;;;;;;5093550;28;20111;-87
2024/01/16 08:27:44;;;;;;;8.88;5.10;;;2.60;99.90;;;;;;5076544;28;20055;-87
2024/01/16 08:30:13;;;;;;;11.88;5.32;;;2.60;99.90;;;;;;5060248;28;20392;-87
2024/01/16 08:32:39;;;;;;;10.05;4.85;;;2.60;99.90;;;;;;5093554;28;20491;-89
2024/01/16 08:35:05;;;;;;;10.20;4.80;;;2.60;99.90;;;;;;5093848;28;20031;-88
2024/01/16 08:37:33;;;;;;;10.38;5.70;;;2.50;99.90;;;;;;5077120;28;20180;-88
2024/01/16 08:39:58;;;;;;;9.38;4.70;;;2.50;99.90;;;;;;5093438;28;20020;-87
2024/01/16 08:42:24;;;;;;;8.23;4.53;;;2.50;99.90;;;;;;5093388;28;20134;-88
2024/01/16 08:44:50;;;;;;;8.60;4.32;;;2.50;99.90;;;;;;5093469;28;20527;-88
2024/01/16 08:47:15;;;;;;;8.43;4.25;;;2.40;99.90;;;;;;5111639;28;20097;-87
2024/01/16 08:49:41;;;;;;;9.73;4.28;;;2.40;99.90;;;;;;5093705;28;20031;-88
2024/01/16 08:52:07;;;;;;;12.63;4.53;;;2.40;99.90;;;;;;5093587;28;20091;-88
2024/01/16 08:54:36;;;;;;;6.90;3.97;;;2.40;99.90;;;;;;5093505;28;20430;-88
2024/01/16 08:57:02;;;;;;;10.18;4.30;;;2.30;99.90;;;;;;5093232;28;20052;-88
2024/01/16 08:59:28;;;;;;;8.75;4.32;;;2.40;99.90;;;;;;5076781;28;20054;-89
2024/01/16 09:01:53;;;;;;;7.07;3.45;;;2.40;99.90;;;;;;5077514;28;20024;-88
2024/01/16 09:04:19;;;;;;;10.13;4.45;;;2.40;99.90;;;;;;5099947;28;20036;-86
2024/01/16 09:06:45;;;;;;;13.63;4.10;;;2.40;99.90;;;;;;5107750;28;20080;-84
2024/01/16 09:09:15;;;;;;;6.00;3.88;;;2.40;99.90;;;;;;5103851;28;20011;-87
2024/01/16 09:11:41;;;;;;;10.18;4.53;;;2.40;99.90;;;;;;5087472;28;20020;-87
2024/01/16 09:14:07;;;;;;;8.43;3.92;;;2.40;99.90;;;;;;5046436;28;20059;-88
2024/01/16 09:16:32;;;;;;;8.20;4.25;;;2.40;99.90;;;;;;5079287;28;20025;-88
2024/01/16 09:18:58;;;;;;;8.30;3.65;;;2.40;99.90;;;;;;5079059;28;20028;-88
2024/01/16 09:21:26;;;;;;;10.32;4.55;;;2.40;99.90;;;;;;5079509;28;20115;-87
2024/01/16 09:23:52;;;;;;;9.10;3.83;;;2.50;99.90;;;;;;5078908;28;20028;-89
2024/01/16 09:26:20;;;;;;;7.97;3.58;;;2.50;99.90;;;;;;5062354;28;20035;-87
2024/01/16 09:28:46;;;;;;;8.25;3.90;;;2.50;99.90;;;;;;5078790;28;20028;-88
2024/01/16 09:31:15;;;;;;;8.60;3.38;;;2.50;99.90;;;;;;5079267;28;20124;-89
2024/01/16 09:33:41;;;;;;;7.18;3.75;;;2.40;99.90;;;;;;5078988;28;20028;-88
2024/01/16 09:36:06;;;;;;;10.73;4.00;;;2.50;99.90;;;;;;5078876;28;20043;-88
2024/01/16 09:38:35;;;;;;;10.02;4.00;;;2.40;99.90;;;;;;5062651;28;20422;-88
2024/01/16 09:41:03;;;;;;;7.45;3.65;;;2.40;99.90;;;;;;5078770;28;20475;-88
2024/01/16 09:43:31;;;;;;;8.55;3.63;;;2.50;99.90;;;;;;5078716;28;20113;-88
2024/01/16 09:46:01;;;;;;;7.75;3.88;;;2.50;99.90;;;;;;5078531;28;20028;-88
2024/01/16 09:48:29;;;;;;;9.50;4.07;;;2.50;99.90;;;;;;5078328;28;20024;-88
2024/01/16 09:50:55;;;;;;;11.38;3.55;;;2.50;99.90;;;;;;5078506;28;20024;-88
2024/01/16 09:53:24;;;;;;;8.02;3.33;;;2.50;99.90;;;;;;5096483;28;20032;-85
2024/01/16 09:55:54;;;;;;;6.72;3.65;;;2.50;99.90;;;;;;5095893;28;20059;-88
2024/01/16 09:58:21;;;;;;;9.75;4.05;;;2.50;99.90;;;;;;5078719;28;20081;-88
2024/01/16 10:00:48;;;;;;;6.38;3.30;;;2.50;99.90;;;;;;5078391;28;20020;-88
2024/01/16 10:03:17;;;;;;;7.28;3.55;;;2.50;99.90;;;;;;5078679;28;20020;-88
2024/01/16 10:05:44;;;;;;;7.82;3.50;;;2.50;99.90;;;;;;5078210;28;20060;-88
2024/01/16 10:08:10;;;;;;;7.57;3.20;;;2.40;99.90;;;;;;5096315;28;20020;-88
2024/01/16 10:10:36;;;;;;;6.70;3.42;;;2.50;99.90;;;;;;5078542;28;20103;-87
2024/01/16 10:13:07;;;;;;;6.32;3.22;;;2.50;99.90;;;;;;5097446;28;20056;-88
2024/01/16 10:15:34;;;;;;;5.75;3.38;;;2.50;99.90;;;;;;5098104;28;20036;-88
2024/01/16 10:18:00;;;;;;;8.52;3.83;;;2.50;99.90;;;;;;5078917;28;20040;-88
2024/01/16 10:20:34;;;;;;;6.10;3.65;;;2.50;99.90;;;;;;5092427;28;20050;-89
2024/01/16 10:23:00;;;;;;;7.38;3.47;;;2.50;99.90;;;;;;5101196;28;20012;-86
2024/01/16 10:25:26;;;;;;;6.05;3.10;;;2.60;99.90;;;;;;5101526;28;20040;-88
2024/01/16 10:28:07;;;;;;;6.30;3.30;;;2.60;99.90;;;;;;5095528;28;20036;-88
2024/01/16 10:30:33;;;;;;;6.15;3.38;;;2.60;99.90;;;;;;5079095;28;20035;-88
2024/01/16 10:33:14;;;;;;;7.07;3.97;;;2.60;99.90;;;;;;5077867;28;20032;-87
2024/01/16 10:35:40;;;;;;;6.45;2.92;;;2.60;99.90;;;;;;5077783;28;20546;-88
2024/01/16 10:38:05;;;;;;;6.72;3.05;;;2.60;99.90;;;;;;5095695;28;20063;-87
2024/01/16 10:40:31;;;;;;;10.73;3.63;;;2.60;99.90;;;;;;5077687;28;20036;-88
2024/01/16 10:43:04;;;;;;;4.97;2.95;;;2.60;99.90;;;;;;5060988;28;20413;-88
2024/01/16 10:45:33;;;;;;;12.30;3.35;;;2.60;99.90;;;;;;5096264;28;20027;-87
2024/01/16 10:48:07;;;;;;;9.48;3.55;;;2.60;99.90;;;;;;5061013;28;20021;-88
2024/01/16 10:50:34;;;;;;;8.93;3.40;;;2.60;99.90;;;;;;5061555;28;20081;-87
2024/01/16 10:53:03;;;;;;;5.75;3.17;;;2.60;99.90;;;;;;5077332;28;20024;-88
2024/01/16 10:55:35;;;;;;;6.20;3.35;;;2.60;99.90;;;;;;5076988;28;20118;-89
2024/01/16 10:58:05;;;;;;;4.72;2.90;;;2.70;99.90;;;;;;5076934;28;20432;-87
2024/01/16 11:00:35;;;;;;;5.03;2.53;;;2.70;99.90;;;;;;5077344;28;20016;-86
2024/01/16 11:03:08;;;;;;;8.07;2.90;;;2.80;99.90;;;;;;5077060;28;20020;-87
2024/01/16 11:05:35;;;;;;;8.60;3.45;;;2.80;99.90;;;;;;5077248;28;20061;-87
2024/01/16 11:08:01;;;;;;;6.53;3.10;;;2.80;99.90;;;;;;5077210;28;20039;-86
2024/01/16 11:10:28;;;;;;;5.38;2.63;;;2.80;99.90;;;;;;5060287;28;20035;-86
2024/01/16 11:12:55;;;;;;;6.22;3.15;;;2.80;99.90;;;;;;5076971;28;20085;-87
2024/01/16 11:15:21;;;;;;;4.15;2.55;;;2.80;99.90;;;;;;5076277;28;20488;-86
2024/01/16 11:17:49;;;;;;;5.07;2.90;;;2.90;99.90;;;;;;5060423;28;20035;-86
2024/01/16 11:20:16;;;;;;;5.65;2.70;;;2.90;99.90;;;;;;5076710;28;20089;-86
2024/01/16 11:22:46;;;;;;;8.68;3.50;;;2.90;99.90;;;;;;5076807;28;20421;-87
2024/01/16 11:25:13;;;;;;;8.02;2.97;;;3.00;99.90;;;;;;5094666;28;20410;-86
2024/01/16 11:27:41;;;;;;;4.80;2.45;;;3.00;99.90;;;;;;5094983;28;20031;-86
2024/01/16 11:30:08;;;;;;;5.75;3.03;;;3.00;99.90;;;;;;5076628;28;20066;-87
2024/01/16 11:32:36;;;;;;;7.47;2.63;;;3.00;99.90;;;;;;5077297;28;20524;-86
2024/01/16 11:35:04;;;;;;;5.25;2.70;;;3.10;99.90;;;;;;5094717;28;20107;-86
2024/01/16 11:37:33;;;;;;;7.53;2.65;;;3.10;99.90;;;;;;5095759;28;20024;-87
2024/01/16 11:40:20;;;;;;;5.65;2.78;;;3.10;99.90;;;;;;5089259;28;20028;-84
2024/01/16 11:42:53;;;;;;;5.28;2.83;;;3.10;99.90;;;;;;5100873;28;20019;-85
2024/01/16 11:45:31;;;;;;;5.28;2.67;;;3.20;99.90;;;;;;5100208;28;20001;-86
2024/01/16 11:48:13;;;;;;;6.63;2.92;;;3.20;99.90;;;;;;5077224;28;20379;-86
2024/01/16 11:50:40;;;;;;;5.28;2.50;;;3.30;99.90;;;;;;5094869;28;20020;-86
2024/01/16 11:53:05;;;;;;;5.40;2.75;;;3.30;99.90;;;;;;5059627;28;20028;-86
2024/01/16 11:55:35;;;;;;;5.53;3.20;;;3.30;99.90;;;;;;5059675;28;20506;-86
2024/01/16 11:58:22;;;;;;;7.85;3.10;;;3.40;99.90;;;;;;5059714;28;20073;-85
2024/01/16 12:00:52;;;;;;;7.35;2.47;;;3.40;99.90;;;;;;5094550;28;20025;-86
2024/01/16 12:03:21;;;;;;;5.75;2.70;;;3.40;99.90;;;;;;5059787;28;20036;-86
2024/01/16 12:05:56;;;;;;;5.50;2.60;;;3.40;99.90;;;;;;5093836;28;20468;-86
2024/01/16 12:08:22;;;;;;;7.00;2.80;;;3.40;99.90;;;;;;5059288;28;20503;-85
2024/01/16 12:10:48;;;;;;;5.30;2.70;;;3.40;99.90;;;;;;5075913;28;20023;-86
2024/01/16 12:13:14;;;;;;;4.28;2.22;;;3.40;99.90;;;;;;5093774;28;20020;-86
2024/01/16 12:15:40;;;;;;;5.53;3.10;;;3.40;99.90;;;;;;5075793;28;20024;-86
2024/01/16 12:18:06;;;;;;;7.55;3.35;;;3.50;99.90;;;;;;5058810;28;20395;-86
2024/01/16 12:20:33;;;;;;;7.95;3.58;;;3.50;99.90;;;;;;5059294;28;20024;-86
2024/01/16 12:23:01;;;;;;;10.05;3.28;;;3.40;99.90;;;;;;5075958;28;20028;-85
2024/01/16 12:25:31;;;;;;;7.65;3.55;;;3.40;99.90;;;;;;5093794;28;20028;-85
2024/01/16 12:28:07;;;;;;;5.85;2.63;;;3.40;99.90;;;;;;5093827;28;20051;-86
2024/01/16 12:30:34;;;;;;;10.25;3.47;;;3.40;99.90;;;;;;5094035;28;20059;-86
2024/01/16 12:33:10;;;;;;;7.03;3.17;;;3.50;99.90;;;;;;5059175;28;20032;-86
2024/01/16 12:35:37;;;;;;;4.53;2.60;;;3.50;99.90;;;;;;5093824;28;20035;-86
2024/01/16 12:38:06;;;;;;;4.63;2.63;;;3.60;99.90;;;;;;5076115;28;20467;-86
2024/01/16 12:41:02;;;;;;;7.53;3.08;;;3.60;99.90;;;;;;5075461;28;20066;-86
2024/01/16 12:43:27;;;;;;;5.55;2.90;;;3.70;99.90;;;;;;5058399;28;20500;-86
2024/01/16 12:45:57;;;;;;;5.82;3.42;;;3.70;99.90;;;;;;5097456;28;20090;-86
2024/01/16 12:48:23;;;;;;;5.75;2.85;;;3.70;99.90;;;;;;5062138;28;20035;-87
2024/01/16 12:50:49;;;;;;;6.07;3.20;;;3.70;99.90;;;;;;5062596;28;20128;-86
2024/01/16 12:53:16;;;;;;;5.47;3.05;;;3.70;99.90;;;;;;5079286;28;20051;-87
2024/01/16 12:55:42;;;;;;;6.80;3.20;;;3.70;99.90;;;;;;5063444;28;20063;-86